sensor_id;sensor_type;location;lat;lon;timestamp;P1;durP1;ratioP1;P2;durP2;ratioP2
16159;SDS011;8185;57.818;15.224;2023-09-12T00:01:21;18.37;;;13.57;;
16159;SDS011;8185;57.818;15.224;2023-09-12T00:03:50;14.97;;;12.43;;
16159;SDS011;8185;57.818;15.224;2023-09-12T00:06:18;17.93;;;13.57;;
16159;SDS011;8185;57.818;15.224;2023-09-12T00:08:45;14.67;;;12.63;;
16159;SDS011;8185;57.818;15.224;2023-09-12T00:11:12;15.60;;;12.70;;
16159;SDS011;8185;57.818;15.224;2023-09-12T00:13:41;19.67;;;13.43;;
16159;SDS011;8185;57.818;15.224;2023-09-12T00:16:08;22.97;;;14.07;;
16159;SDS011;8185;57.818;15.224;2023-09-12T00:18:36;16.63;;;14.77;;
16159;SDS011;8185;57.818;15.224;2023-09-12T00:21:03;21.63;;;14.70;;
16159;SDS011;8185;57.818;15.224;2023-09-12T00:23:30;19.47;;;14.70;;
16159;SDS011;8185;57.818;15.224;2023-09-12T00:25:57;16.73;;;14.93;;
16159;SDS011;8185;57.818;15.224;2023-09-12T00:28:24;21.07;;;15.37;;
16159;SDS011;8185;57.818;15.224;2023-09-12T00:30:53;21.57;;;16.00;;
16159;SDS011;8185;57.818;15.224;2023-09-12T00:33:20;21.33;;;15.47;;
16159;SDS011;8185;57.818;15.224;2023-09-12T00:35:47;30.60;;;17.77;;
16159;SDS011;8185;57.818;15.224;2023-09-12T00:38:14;21.27;;;16.57;;
16159;SDS011;8185;57.818;15.224;2023-09-12T00:40:42;20.97;;;16.30;;
16159;SDS011;8185;57.818;15.224;2023-09-12T00:43:09;26.43;;;19.13;;
16159;SDS011;8185;57.818;15.224;2023-09-12T00:45:36;28.87;;;17.07;;
16159;SDS011;8185;57.818;15.224;2023-09-12T00:48:05;28.73;;;18.43;;
16159;SDS011;8185;57.818;15.224;2023-09-12T00:50:34;20.70;;;17.43;;
16159;SDS011;8185;57.818;15.224;2023-09-12T00:53:03;24.20;;;18.00;;
16159;SDS011;8185;57.818;15.224;2023-09-12T00:55:31;27.33;;;16.57;;
16159;SDS011;8185;57.818;15.224;2023-09-12T00:58:00;24.67;;;17.33;;
16159;SDS011;8185;57.818;15.224;2023-09-12T01:00:28;23.47;;;15.97;;
16159;SDS011;8185;57.818;15.224;2023-09-12T01:02:55;25.57;;;17.20;;
16159;SDS011;8185;57.818;15.224;2023-09-12T01:05:24;23.73;;;16.80;;
16159;SDS011;8185;57.818;15.224;2023-09-12T01:07:53;20.00;;;16.50;;
16159;SDS011;8185;57.818;15.224;2023-09-12T01:10:20;22.90;;;17.17;;
16159;SDS011;8185;57.818;15.224;2023-09-12T01:12:47;24.80;;;16.73;;
16159;SDS011;8185;57.818;15.224;2023-09-12T01:15:15;32.50;;;22.93;;
16159;SDS011;8185;57.818;15.224;2023-09-12T01:17:42;23.27;;;18.27;;
16159;SDS011;8185;57.818;15.224;2023-09-12T01:20:11;23.37;;;18.33;;
16159;SDS011;8185;57.818;15.224;2023-09-12T01:25:42;24.63;;;18.10;;
16159;SDS011;8185;57.818;15.224;2023-09-12T01:28:35;26.73;;;17.90;;
16159;SDS011;8185;57.818;15.224;2023-09-12T01:31:08;23.30;;;17.90;;
16159;SDS011;8185;57.818;15.224;2023-09-12T01:33:35;25.70;;;19.87;;
16159;SDS011;8185;57.818;15.224;2023-09-12T01:36:03;27.77;;;22.43;;
16159;SDS011;8185;57.818;15.224;2023-09-12T01:38:30;24.73;;;19.57;;
16159;SDS011;8185;57.818;15.224;2023-09-12T01:40:58;27.27;;;20.07;;
16159;SDS011;8185;57.818;15.224;2023-09-12T01:43:25;29.40;;;20.40;;
16159;SDS011;8185;57.818;15.224;2023-09-12T01:45:55;26.80;;;19.80;;
16159;SDS011;8185;57.818;15.224;2023-09-12T01:48:25;25.33;;;19.60;;
16159;SDS011;8185;57.818;15.224;2023-09-12T01:50:58;29.33;;;20.70;;
16159;SDS011;8185;57.818;15.224;2023-09-12T01:53:27;28.20;;;22.63;;
16159;SDS011;8185;57.818;15.224;2023-09-12T01:55:55;25.07;;;19.70;;
16159;SDS011;8185;57.818;15.224;2023-09-12T01:58:25;25.73;;;20.20;;
16159;SDS011;8185;57.818;15.224;2023-09-12T02:00:52;25.33;;;19.33;;
16159;SDS011;8185;57.818;15.224;2023-09-12T02:03:21;21.87;;;18.50;;
16159;SDS011;8185;57.818;15.224;2023-09-12T02:05:48;21.17;;;18.40;;
16159;SDS011;8185;57.818;15.224;2023-09-12T02:08:15;23.03;;;19.43;;
16159;SDS011;8185;57.818;15.224;2023-09-12T02:10:42;21.77;;;18.97;;
16159;SDS011;8185;57.818;15.224;2023-09-12T02:13:09;22.23;;;18.77;;
16159;SDS011;8185;57.818;15.224;2023-09-12T02:15:37;26.07;;;18.47;;
16159;SDS011;8185;57.818;15.224;2023-09-12T02:18:04;21.70;;;19.17;;
16159;SDS011;8185;57.818;15.224;2023-09-12T02:20:33;23.90;;;19.77;;
16159;SDS011;8185;57.818;15.224;2023-09-12T02:23:04;21.00;;;17.50;;
16159;SDS011;8185;57.818;15.224;2023-09-12T02:25:31;23.67;;;19.50;;
16159;SDS011;8185;57.818;15.224;2023-09-12T02:27:58;24.43;;;18.87;;
16159;SDS011;8185;57.818;15.224;2023-09-12T02:30:25;21.57;;;18.33;;
16159;SDS011;8185;57.818;15.224;2023-09-12T02:32:52;21.67;;;18.57;;
16159;SDS011;8185;57.818;15.224;2023-09-12T02:35:19;22.07;;;18.07;;
16159;SDS011;8185;57.818;15.224;2023-09-12T02:37:48;22.73;;;18.60;;
16159;SDS011;8185;57.818;15.224;2023-09-12T02:40:15;22.33;;;18.03;;
16159;SDS011;8185;57.818;15.224;2023-09-12T02:42:43;21.17;;;17.33;;
16159;SDS011;8185;57.818;15.224;2023-09-12T02:45:10;20.70;;;17.00;;
16159;SDS011;8185;57.818;15.224;2023-09-12T02:47:37;19.47;;;17.40;;
16159;SDS011;8185;57.818;15.224;2023-09-12T02:50:05;20.20;;;16.77;;
16159;SDS011;8185;57.818;15.224;2023-09-12T02:52:33;21.30;;;16.97;;
16159;SDS011;8185;57.818;15.224;2023-09-12T02:55:01;18.97;;;16.80;;
16159;SDS011;8185;57.818;15.224;2023-09-12T02:57:29;18.67;;;16.67;;
16159;SDS011;8185;57.818;15.224;2023-09-12T02:59:56;19.30;;;17.00;;
16159;SDS011;8185;57.818;15.224;2023-09-12T03:02:23;22.03;;;17.50;;
16159;SDS011;8185;57.818;15.224;2023-09-12T03:04:50;20.20;;;17.30;;
16159;SDS011;8185;57.818;15.224;2023-09-12T03:07:18;20.90;;;17.40;;
16159;SDS011;8185;57.818;15.224;2023-09-12T03:09:47;18.73;;;16.83;;
16159;SDS011;8185;57.818;15.224;2023-09-12T03:12:16;19.70;;;17.00;;
16159;SDS011;8185;57.818;15.224;2023-09-12T03:14:43;19.33;;;17.23;;
16159;SDS011;8185;57.818;15.224;2023-09-12T03:17:11;19.97;;;17.67;;
16159;SDS011;8185;57.818;15.224;2023-09-12T03:19:38;19.30;;;15.93;;
16159;SDS011;8185;57.818;15.224;2023-09-12T03:22:05;19.83;;;17.13;;
16159;SDS011;8185;57.818;15.224;2023-09-12T03:24:32;21.43;;;15.77;;
16159;SDS011;8185;57.818;15.224;2023-09-12T03:26:59;17.77;;;15.63;;
16159;SDS011;8185;57.818;15.224;2023-09-12T03:29:28;16.93;;;15.13;;
16159;SDS011;8185;57.818;15.224;2023-09-12T03:31:55;18.13;;;15.50;;
16159;SDS011;8185;57.818;15.224;2023-09-12T03:34:22;17.70;;;15.53;;
16159;SDS011;8185;57.818;15.224;2023-09-12T03:36:49;15.87;;;14.03;;
16159;SDS011;8185;57.818;15.224;2023-09-12T03:39:16;19.77;;;15.27;;
16159;SDS011;8185;57.818;15.224;2023-09-12T03:41:44;16.83;;;14.23;;
16159;SDS011;8185;57.818;15.224;2023-09-12T03:44:11;19.00;;;14.67;;
16159;SDS011;8185;57.818;15.224;2023-09-12T03:46:39;17.27;;;14.13;;
16159;SDS011;8185;57.818;15.224;2023-09-12T03:49:07;17.30;;;14.40;;
16159;SDS011;8185;57.818;15.224;2023-09-12T03:51:34;19.13;;;14.23;;
16159;SDS011;8185;57.818;15.224;2023-09-12T03:54:03;15.00;;;13.40;;
16159;SDS011;8185;57.818;15.224;2023-09-12T03:56:30;14.23;;;12.70;;
16159;SDS011;8185;57.818;15.224;2023-09-12T03:58:57;17.47;;;13.10;;
16159;SDS011;8185;57.818;15.224;2023-09-12T04:01:25;14.97;;;13.37;;
16159;SDS011;8185;57.818;15.224;2023-09-12T04:03:54;14.37;;;12.53;;
16159;SDS011;8185;57.818;15.224;2023-09-12T04:06:21;13.87;;;12.50;;
16159;SDS011;8185;57.818;15.224;2023-09-12T04:08:48;16.37;;;13.40;;
16159;SDS011;8185;57.818;15.224;2023-09-12T04:11:15;13.33;;;11.77;;
16159;SDS011;8185;57.818;15.224;2023-09-12T04:13:42;13.40;;;12.03;;
16159;SDS011;8185;57.818;15.224;2023-09-12T04:16:10;13.63;;;12.20;;
16159;SDS011;8185;57.818;15.224;2023-09-12T04:18:37;14.53;;;12.43;;
16159;SDS011;8185;57.818;15.224;2023-09-12T04:21:06;13.10;;;11.67;;
16159;SDS011;8185;57.818;15.224;2023-09-12T04:23:33;16.03;;;12.73;;
16159;SDS011;8185;57.818;15.224;2023-09-12T04:26:00;16.33;;;12.20;;
16159;SDS011;8185;57.818;15.224;2023-09-12T04:28:28;14.67;;;12.30;;
16159;SDS011;8185;57.818;15.224;2023-09-12T04:31:00;17.27;;;13.57;;
16159;SDS011;8185;57.818;15.224;2023-09-12T04:33:28;15.37;;;12.43;;
16159;SDS011;8185;57.818;15.224;2023-09-12T04:35:57;16.90;;;13.20;;
16159;SDS011;8185;57.818;15.224;2023-09-12T04:38:27;16.17;;;12.33;;
16159;SDS011;8185;57.818;15.224;2023-09-12T04:40:54;14.80;;;13.30;;
16159;SDS011;8185;57.818;15.224;2023-09-12T04:43:22;14.60;;;11.97;;
16159;SDS011;8185;57.818;15.224;2023-09-12T04:45:50;13.93;;;12.23;;
16159;SDS011;8185;57.818;15.224;2023-09-12T04:48:17;15.00;;;12.37;;
16159;SDS011;8185;57.818;15.224;2023-09-12T04:50:44;16.27;;;12.00;;
16159;SDS011;8185;57.818;15.224;2023-09-12T04:53:11;13.43;;;12.03;;
16159;SDS011;8185;57.818;15.224;2023-09-12T04:55:40;13.53;;;12.10;;
16159;SDS011;8185;57.818;15.224;2023-09-12T04:58:07;13.70;;;12.30;;
16159;SDS011;8185;57.818;15.224;2023-09-12T05:00:34;13.60;;;11.87;;
16159;SDS011;8185;57.818;15.224;2023-09-12T05:03:01;14.93;;;12.27;;
16159;SDS011;8185;57.818;15.224;2023-09-12T05:05:29;15.27;;;12.57;;
16159;SDS011;8185;57.818;15.224;2023-09-12T05:07:57;14.00;;;12.60;;
16159;SDS011;8185;57.818;15.224;2023-09-12T05:10:24;17.23;;;13.47;;
16159;SDS011;8185;57.818;15.224;2023-09-12T05:12:52;13.57;;;12.13;;
16159;SDS011;8185;57.818;15.224;2023-09-12T05:15:20;14.63;;;12.87;;
16159;SDS011;8185;57.818;15.224;2023-09-12T05:17:47;14.33;;;12.07;;
16159;SDS011;8185;57.818;15.224;2023-09-12T05:20:14;15.27;;;12.47;;
16159;SDS011;8185;57.818;15.224;2023-09-12T05:22:41;14.17;;;12.57;;
16159;SDS011;8185;57.818;15.224;2023-09-12T05:25:08;14.40;;;12.60;;
16159;SDS011;8185;57.818;15.224;2023-09-12T05:27:36;17.00;;;13.70;;
16159;SDS011;8185;57.818;15.224;2023-09-12T05:30:05;16.13;;;14.43;;
16159;SDS011;8185;57.818;15.224;2023-09-12T05:32:33;16.37;;;12.70;;
16159;SDS011;8185;57.818;15.224;2023-09-12T05:35:01;18.40;;;13.20;;
16159;SDS011;8185;57.818;15.224;2023-09-12T05:37:29;17.87;;;12.77;;
16159;SDS011;8185;57.818;15.224;2023-09-12T05:39:56;17.83;;;14.50;;
16159;SDS011;8185;57.818;15.224;2023-09-12T05:42:23;19.13;;;14.30;;
16159;SDS011;8185;57.818;15.224;2023-09-12T05:44:51;16.87;;;15.10;;
16159;SDS011;8185;57.818;15.224;2023-09-12T05:47:21;19.60;;;16.53;;
16159;SDS011;8185;57.818;15.224;2023-09-12T05:49:48;18.63;;;15.63;;
16159;SDS011;8185;57.818;15.224;2023-09-12T05:52:15;20.63;;;15.13;;
16159;SDS011;8185;57.818;15.224;2023-09-12T05:54:42;17.07;;;14.67;;
16159;SDS011;8185;57.818;15.224;2023-09-12T05:57:09;16.67;;;13.40;;
16159;SDS011;8185;57.818;15.224;2023-09-12T05:59:38;19.50;;;15.63;;
16159;SDS011;8185;57.818;15.224;2023-09-12T06:02:05;21.67;;;14.77;;
16159;SDS011;8185;57.818;15.224;2023-09-12T06:04:36;17.87;;;14.90;;
16159;SDS011;8185;57.818;15.224;2023-09-12T06:07:03;18.67;;;15.93;;
16159;SDS011;8185;57.818;15.224;2023-09-12T06:09:31;17.63;;;14.57;;
16159;SDS011;8185;57.818;15.224;2023-09-12T06:11:58;17.00;;;15.20;;
16159;SDS011;8185;57.818;15.224;2023-09-12T06:14:25;17.27;;;13.60;;
16159;SDS011;8185;57.818;15.224;2023-09-12T06:16:52;17.83;;;14.13;;
16159;SDS011;8185;57.818;15.224;2023-09-12T06:19:19;16.97;;;14.67;;
16159;SDS011;8185;57.818;15.224;2023-09-12T06:21:48;15.30;;;13.10;;
16159;SDS011;8185;57.818;15.224;2023-09-12T06:24:16;19.57;;;14.73;;
16159;SDS011;8185;57.818;15.224;2023-09-12T06:26:46;18.30;;;14.97;;
16159;SDS011;8185;57.818;15.224;2023-09-12T06:29:13;18.73;;;14.10;;
16159;SDS011;8185;57.818;15.224;2023-09-12T06:31:41;21.40;;;15.87;;
16159;SDS011;8185;57.818;15.224;2023-09-12T06:34:08;20.27;;;16.23;;
16159;SDS011;8185;57.818;15.224;2023-09-12T06:36:36;23.13;;;17.93;;
16159;SDS011;8185;57.818;15.224;2023-09-12T06:39:07;25.63;;;16.87;;
16159;SDS011;8185;57.818;15.224;2023-09-12T06:41:35;22.90;;;19.40;;
16159;SDS011;8185;57.818;15.224;2023-09-12T06:44:02;23.17;;;17.97;;
16159;SDS011;8185;57.818;15.224;2023-09-12T06:46:30;24.23;;;19.23;;
16159;SDS011;8185;57.818;15.224;2023-09-12T06:49:01;26.30;;;20.57;;
16159;SDS011;8185;57.818;15.224;2023-09-12T06:51:28;22.57;;;17.27;;
16159;SDS011;8185;57.818;15.224;2023-09-12T06:53:56;25.33;;;20.03;;
16159;SDS011;8185;57.818;15.224;2023-09-12T06:56:24;27.17;;;19.80;;
16159;SDS011;8185;57.818;15.224;2023-09-12T06:58:52;21.17;;;16.67;;
16159;SDS011;8185;57.818;15.224;2023-09-12T07:01:20;23.10;;;16.03;;
16159;SDS011;8185;57.818;15.224;2023-09-12T07:03:48;22.53;;;16.43;;
16159;SDS011;8185;57.818;15.224;2023-09-12T07:06:19;20.53;;;16.40;;
16159;SDS011;8185;57.818;15.224;2023-09-12T07:08:46;20.03;;;15.57;;
16159;SDS011;8185;57.818;15.224;2023-09-12T07:11:13;24.30;;;16.90;;
16159;SDS011;8185;57.818;15.224;2023-09-12T07:13:42;21.53;;;16.77;;
16159;SDS011;8185;57.818;15.224;2023-09-12T07:16:09;24.50;;;17.03;;
16159;SDS011;8185;57.818;15.224;2023-09-12T07:18:37;22.03;;;16.80;;
16159;SDS011;8185;57.818;15.224;2023-09-12T07:21:04;19.47;;;16.30;;
16159;SDS011;8185;57.818;15.224;2023-09-12T07:23:32;22.17;;;15.97;;
16159;SDS011;8185;57.818;15.224;2023-09-12T07:26:00;21.50;;;17.27;;
16159;SDS011;8185;57.818;15.224;2023-09-12T07:28:27;22.53;;;17.97;;
16159;SDS011;8185;57.818;15.224;2023-09-12T07:30:57;24.47;;;16.00;;
16159;SDS011;8185;57.818;15.224;2023-09-12T07:33:25;25.73;;;15.97;;
16159;SDS011;8185;57.818;15.224;2023-09-12T07:35:52;22.17;;;15.53;;
16159;SDS011;8185;57.818;15.224;2023-09-12T07:38:20;25.60;;;17.57;;
16159;SDS011;8185;57.818;15.224;2023-09-12T07:40:47;21.10;;;17.53;;
16159;SDS011;8185;57.818;15.224;2023-09-12T07:43:15;19.60;;;16.77;;
16159;SDS011;8185;57.818;15.224;2023-09-12T07:45:42;20.07;;;14.37;;
16159;SDS011;8185;57.818;15.224;2023-09-12T07:48:11;19.17;;;14.67;;
16159;SDS011;8185;57.818;15.224;2023-09-12T07:50:38;17.20;;;13.53;;
16159;SDS011;8185;57.818;15.224;2023-09-12T07:53:05;18.53;;;14.03;;
16159;SDS011;8185;57.818;15.224;2023-09-12T07:55:35;18.63;;;13.80;;
16159;SDS011;8185;57.818;15.224;2023-09-12T07:58:11;17.57;;;13.47;;
16159;SDS011;8185;57.818;15.224;2023-09-12T08:00:38;17.87;;;13.33;;
16159;SDS011;8185;57.818;15.224;2023-09-12T08:03:06;16.10;;;14.00;;
16159;SDS011;8185;57.818;15.224;2023-09-12T08:05:34;16.43;;;13.00;;
16159;SDS011;8185;57.818;15.224;2023-09-12T08:08:02;15.67;;;13.33;;
16159;SDS011;8185;57.818;15.224;2023-09-12T08:10:29;17.90;;;13.43;;
16159;SDS011;8185;57.818;15.224;2023-09-12T08:12:57;20.77;;;13.03;;
16159;SDS011;8185;57.818;15.224;2023-09-12T08:15:24;16.07;;;14.37;;
16159;SDS011;8185;57.818;15.224;2023-09-12T08:17:51;16.40;;;14.13;;
16159;SDS011;8185;57.818;15.224;2023-09-12T08:20:20;18.87;;;13.07;;
16159;SDS011;8185;57.818;15.224;2023-09-12T08:22:49;14.60;;;13.00;;
16159;SDS011;8185;57.818;15.224;2023-09-12T08:25:16;16.20;;;12.47;;
16159;SDS011;8185;57.818;15.224;2023-09-12T08:27:43;13.43;;;11.87;;
16159;SDS011;8185;57.818;15.224;2023-09-12T08:30:11;15.50;;;10.77;;
16159;SDS011;8185;57.818;15.224;2023-09-12T08:32:39;13.17;;;11.90;;
16159;SDS011;8185;57.818;15.224;2023-09-12T08:35:09;11.80;;;10.30;;
16159;SDS011;8185;57.818;15.224;2023-09-12T08:37:38;14.20;;;10.57;;
16159;SDS011;8185;57.818;15.224;2023-09-12T08:40:08;12.35;;;11.00;;
16159;SDS011;8185;57.818;15.224;2023-09-12T08:42:38;13.27;;;10.75;;
16159;SDS011;8185;57.818;15.224;2023-09-12T08:45:11;12.77;;;10.45;;
16159;SDS011;8185;57.818;15.224;2023-09-12T08:47:40;11.93;;;10.82;;
16159;SDS011;8185;57.818;15.224;2023-09-12T08:50:10;10.20;;;8.57;;
16159;SDS011;8185;57.818;15.224;2023-09-12T08:52:39;8.37;;;7.50;;
16159;SDS011;8185;57.818;15.224;2023-09-12T08:55:08;8.80;;;7.90;;
16159;SDS011;8185;57.818;15.224;2023-09-12T08:57:37;8.38;;;7.25;;
16159;SDS011;8185;57.818;15.224;2023-09-12T09:00:07;9.30;;;7.70;;
16159;SDS011;8185;57.818;15.224;2023-09-12T09:02:36;8.33;;;7.53;;
16159;SDS011;8185;57.818;15.224;2023-09-12T09:05:05;12.03;;;8.17;;
16159;SDS011;8185;57.818;15.224;2023-09-12T09:07:34;9.63;;;7.93;;
16159;SDS011;8185;57.818;15.224;2023-09-12T09:10:04;8.07;;;6.77;;
16159;SDS011;8185;57.818;15.224;2023-09-12T09:12:34;10.33;;;7.97;;
16159;SDS011;8185;57.818;15.224;2023-09-12T09:17:47;10.20;;;7.43;;
16159;SDS011;8185;57.818;15.224;2023-09-12T09:20:25;9.73;;;8.00;;
16159;SDS011;8185;57.818;15.224;2023-09-12T09:22:58;8.50;;;6.93;;
16159;SDS011;8185;57.818;15.224;2023-09-12T09:25:26;9.83;;;7.43;;
16159;SDS011;8185;57.818;15.224;2023-09-12T09:27:55;8.37;;;7.47;;
16159;SDS011;8185;57.818;15.224;2023-09-12T09:30:38;9.33;;;7.17;;
16159;SDS011;8185;57.818;15.224;2023-09-12T09:33:07;11.73;;;8.10;;
16159;SDS011;8185;57.818;15.224;2023-09-12T09:35:35;12.57;;;8.37;;
16159;SDS011;8185;57.818;15.224;2023-09-12T09:38:02;10.20;;;8.50;;
16159;SDS011;8185;57.818;15.224;2023-09-12T09:40:31;10.90;;;8.30;;
16159;SDS011;8185;57.818;15.224;2023-09-12T09:43:01;10.57;;;8.10;;
16159;SDS011;8185;57.818;15.224;2023-09-12T09:45:29;11.87;;;8.77;;
16159;SDS011;8185;57.818;15.224;2023-09-12T09:47:57;9.67;;;8.47;;
16159;SDS011;8185;57.818;15.224;2023-09-12T09:50:25;10.83;;;8.17;;
16159;SDS011;8185;57.818;15.224;2023-09-12T09:52:54;9.80;;;7.93;;
16159;SDS011;8185;57.818;15.224;2023-09-12T09:55:23;11.20;;;7.90;;
16159;SDS011;8185;57.818;15.224;2023-09-12T09:57:51;11.20;;;8.30;;
16159;SDS011;8185;57.818;15.224;2023-09-12T10:00:20;8.73;;;7.60;;
16159;SDS011;8185;57.818;15.224;2023-09-12T10:02:50;8.53;;;7.30;;
16159;SDS011;8185;57.818;15.224;2023-09-12T10:05:18;8.43;;;7.30;;
16159;SDS011;8185;57.818;15.224;2023-09-12T10:07:47;7.93;;;7.03;;
16159;SDS011;8185;57.818;15.224;2023-09-12T10:10:16;9.40;;;7.40;;
16159;SDS011;8185;57.818;15.224;2023-09-12T10:12:48;9.50;;;7.50;;
16159;SDS011;8185;57.818;15.224;2023-09-12T10:15:17;9.50;;;7.67;;
16159;SDS011;8185;57.818;15.224;2023-09-12T10:17:51;10.53;;;7.57;;
16159;SDS011;8185;57.818;15.224;2023-09-12T10:20:24;10.40;;;7.80;;
16159;SDS011;8185;57.818;15.224;2023-09-12T10:22:56;8.23;;;7.30;;
16159;SDS011;8185;57.818;15.224;2023-09-12T10:25:32;8.53;;;7.17;;
16159;SDS011;8185;57.818;15.224;2023-09-12T10:28:03;9.03;;;7.90;;
16159;SDS011;8185;57.818;15.224;2023-09-12T10:30:33;7.57;;;6.77;;
16159;SDS011;8185;57.818;15.224;2023-09-12T10:33:02;9.00;;;7.50;;
16159;SDS011;8185;57.818;15.224;2023-09-12T10:35:30;12.13;;;7.70;;
16159;SDS011;8185;57.818;15.224;2023-09-12T10:37:59;9.40;;;7.60;;
16159;SDS011;8185;57.818;15.224;2023-09-12T10:40:30;9.20;;;7.20;;
16159;SDS011;8185;57.818;15.224;2023-09-12T10:42:58;9.23;;;7.67;;
16159;SDS011;8185;57.818;15.224;2023-09-12T10:45:28;8.73;;;7.20;;
16159;SDS011;8185;57.818;15.224;2023-09-12T10:47:59;8.47;;;7.53;;
16159;SDS011;8185;57.818;15.224;2023-09-12T10:50:26;9.90;;;7.83;;
16159;SDS011;8185;57.818;15.224;2023-09-12T10:52:54;9.07;;;6.97;;
16159;SDS011;8185;57.818;15.224;2023-09-12T10:55:22;7.83;;;7.00;;
16159;SDS011;8185;57.818;15.224;2023-09-12T10:58:03;10.43;;;7.00;;
16159;SDS011;8185;57.818;15.224;2023-09-12T11:00:31;10.45;;;7.18;;
16159;SDS011;8185;57.818;15.224;2023-09-12T11:03:01;9.88;;;7.38;;
16159;SDS011;8185;57.818;15.224;2023-09-12T11:06:05;8.00;;;7.20;;
16159;SDS011;8185;57.818;15.224;2023-09-12T11:11:45;7.90;;;6.40;;
16159;SDS011;8185;57.818;15.224;2023-09-12T11:14:13;8.47;;;6.93;;
16159;SDS011;8185;57.818;15.224;2023-09-12T11:16:41;7.05;;;6.35;;
16159;SDS011;8185;57.818;15.224;2023-09-12T11:19:15;7.95;;;6.63;;
16159;SDS011;8185;57.818;15.224;2023-09-12T11:21:44;7.28;;;6.47;;
16159;SDS011;8185;57.818;15.224;2023-09-12T11:24:13;7.63;;;6.75;;
16159;SDS011;8185;57.818;15.224;2023-09-12T11:26:54;7.40;;;6.70;;
16159;SDS011;8185;57.818;15.224;2023-09-12T11:29:26;6.82;;;6.05;;
16159;SDS011;8185;57.818;15.224;2023-09-12T11:31:55;9.02;;;5.97;;
16159;SDS011;8185;57.818;15.224;2023-09-12T11:34:29;7.38;;;6.68;;
16159;SDS011;8185;57.818;15.224;2023-09-12T11:37:02;7.32;;;6.15;;
16159;SDS011;8185;57.818;15.224;2023-09-12T11:39:30;7.65;;;6.95;;
16159;SDS011;8185;57.818;15.224;2023-09-12T11:41:59;7.45;;;6.10;;
16159;SDS011;8185;57.818;15.224;2023-09-12T11:44:27;9.52;;;6.35;;
16159;SDS011;8185;57.818;15.224;2023-09-12T11:46:56;6.50;;;5.95;;
16159;SDS011;8185;57.818;15.224;2023-09-12T11:49:29;7.85;;;5.88;;
16159;SDS011;8185;57.818;15.224;2023-09-12T11:52:02;6.45;;;5.85;;
16159;SDS011;8185;57.818;15.224;2023-09-12T11:54:34;8.10;;;6.47;;
16159;SDS011;8185;57.818;15.224;2023-09-12T11:57:01;6.43;;;5.63;;
16159;SDS011;8185;57.818;15.224;2023-09-12T11:59:29;6.35;;;5.78;;
16159;SDS011;8185;57.818;15.224;2023-09-12T12:01:56;8.80;;;6.18;;
16159;SDS011;8185;57.818;15.224;2023-09-12T12:04:24;6.65;;;6.00;;
16159;SDS011;8185;57.818;15.224;2023-09-12T12:06:53;5.80;;;5.30;;
16159;SDS011;8185;57.818;15.224;2023-09-12T12:09:21;6.97;;;5.65;;
16159;SDS011;8185;57.818;15.224;2023-09-12T12:11:48;5.53;;;5.03;;
16159;SDS011;8185;57.818;15.224;2023-09-12T12:14:16;7.80;;;6.07;;
16159;SDS011;8185;57.818;15.224;2023-09-12T12:16:45;7.70;;;5.07;;
16159;SDS011;8185;57.818;15.224;2023-09-12T12:19:13;8.60;;;5.95;;
16159;SDS011;8185;57.818;15.224;2023-09-12T12:21:40;6.97;;;5.57;;
16159;SDS011;8185;57.818;15.224;2023-09-12T12:24:10;8.18;;;5.53;;
16159;SDS011;8185;57.818;15.224;2023-09-12T12:26:40;6.22;;;5.25;;
16159;SDS011;8185;57.818;15.224;2023-09-12T12:29:08;6.03;;;5.43;;
16159;SDS011;8185;57.818;15.224;2023-09-12T12:31:36;7.97;;;5.28;;
16159;SDS011;8185;57.818;15.224;2023-09-12T12:34:04;5.72;;;5.20;;
16159;SDS011;8185;57.818;15.224;2023-09-12T12:36:32;6.40;;;5.80;;
16159;SDS011;8185;57.818;15.224;2023-09-12T12:38:59;6.25;;;5.65;;
16159;SDS011;8185;57.818;15.224;2023-09-12T12:41:29;5.65;;;5.15;;
16159;SDS011;8185;57.818;15.224;2023-09-12T12:43:56;6.95;;;6.25;;
16159;SDS011;8185;57.818;15.224;2023-09-12T12:46:25;6.30;;;5.70;;
16159;SDS011;8185;57.818;15.224;2023-09-12T12:48:53;5.90;;;5.22;;
16159;SDS011;8185;57.818;15.224;2023-09-12T12:51:22;6.47;;;5.88;;
16159;SDS011;8185;57.818;15.224;2023-09-12T12:53:50;7.25;;;5.78;;
16159;SDS011;8185;57.818;15.224;2023-09-12T12:56:19;6.15;;;5.55;;
16159;SDS011;8185;57.818;15.224;2023-09-12T12:58:50;5.55;;;5.05;;
16159;SDS011;8185;57.818;15.224;2023-09-12T13:01:19;7.13;;;5.85;;
16159;SDS011;8185;57.818;15.224;2023-09-12T13:03:47;6.22;;;5.63;;
16159;SDS011;8185;57.818;15.224;2023-09-12T13:06:15;6.38;;;5.78;;
16159;SDS011;8185;57.818;15.224;2023-09-12T13:08:43;6.37;;;5.60;;
16159;SDS011;8185;57.818;15.224;2023-09-12T13:11:12;6.50;;;5.70;;
16159;SDS011;8185;57.818;15.224;2023-09-12T13:13:40;7.40;;;5.17;;
16159;SDS011;8185;57.818;15.224;2023-09-12T13:16:11;6.67;;;6.07;;
16159;SDS011;8185;57.818;15.224;2023-09-12T13:18:40;7.23;;;5.73;;
16159;SDS011;8185;57.818;15.224;2023-09-12T13:21:07;6.80;;;6.10;;
16159;SDS011;8185;57.818;15.224;2023-09-12T13:23:36;8.87;;;6.47;;
16159;SDS011;8185;57.818;15.224;2023-09-12T13:26:04;6.80;;;6.10;;
16159;SDS011;8185;57.818;15.224;2023-09-12T13:28:33;7.07;;;6.27;;
16159;SDS011;8185;57.818;15.224;2023-09-12T13:31:01;6.87;;;6.17;;
16159;SDS011;8185;57.818;15.224;2023-09-12T13:33:30;6.90;;;6.30;;
16159;SDS011;8185;57.818;15.224;2023-09-12T13:35:57;6.93;;;6.23;;
16159;SDS011;8185;57.818;15.224;2023-09-12T13:38:25;7.03;;;6.33;;
16159;SDS011;8185;57.818;15.224;2023-09-12T13:40:52;7.20;;;6.40;;
16159;SDS011;8185;57.818;15.224;2023-09-12T13:43:19;7.93;;;6.27;;
16159;SDS011;8185;57.818;15.224;2023-09-12T13:45:48;7.10;;;6.40;;
16159;SDS011;8185;57.818;15.224;2023-09-12T13:48:15;8.83;;;6.67;;
16159;SDS011;8185;57.818;15.224;2023-09-12T13:50:44;8.90;;;6.93;;
16159;SDS011;8185;57.818;15.224;2023-09-12T13:53:12;6.90;;;6.20;;
16159;SDS011;8185;57.818;15.224;2023-09-12T13:55:39;7.13;;;6.43;;
16159;SDS011;8185;57.818;15.224;2023-09-12T13:58:06;8.40;;;6.60;;
16159;SDS011;8185;57.818;15.224;2023-09-12T14:00:34;8.85;;;6.53;;
16159;SDS011;8185;57.818;15.224;2023-09-12T14:03:02;7.45;;;6.75;;
16159;SDS011;8185;57.818;15.224;2023-09-12T14:05:29;7.27;;;6.57;;
16159;SDS011;8185;57.818;15.224;2023-09-12T14:07:58;7.57;;;6.70;;
16159;SDS011;8185;57.818;15.224;2023-09-12T14:10:25;7.43;;;6.47;;
16159;SDS011;8185;57.818;15.224;2023-09-12T14:12:53;7.28;;;6.43;;
16159;SDS011;8185;57.818;15.224;2023-09-12T14:15:20;11.13;;;6.55;;
16159;SDS011;8185;57.818;15.224;2023-09-12T14:17:47;7.85;;;7.05;;
16159;SDS011;8185;57.818;15.224;2023-09-12T14:20:15;7.43;;;6.73;;
16159;SDS011;8185;57.818;15.224;2023-09-12T14:22:42;7.55;;;6.85;;
16159;SDS011;8185;57.818;15.224;2023-09-12T14:25:11;9.43;;;6.83;;
16159;SDS011;8185;57.818;15.224;2023-09-12T14:27:40;8.10;;;7.30;;
16159;SDS011;8185;57.818;15.224;2023-09-12T14:30:09;8.40;;;6.80;;
16159;SDS011;8185;57.818;15.224;2023-09-12T14:32:38;7.40;;;6.70;;
16159;SDS011;8185;57.818;15.224;2023-09-12T14:35:05;8.27;;;7.47;;
16159;SDS011;8185;57.818;15.224;2023-09-12T14:37:33;9.23;;;7.00;;
16159;SDS011;8185;57.818;15.224;2023-09-12T14:40:03;7.43;;;6.50;;
16159;SDS011;8185;57.818;15.224;2023-09-12T14:42:32;7.50;;;6.70;;
16159;SDS011;8185;57.818;15.224;2023-09-12T14:45:00;8.10;;;7.30;;
16159;SDS011;8185;57.818;15.224;2023-09-12T14:47:27;7.90;;;7.03;;